Decoded Metar for KGCK (GARDEN CITY in KS, USA) (IATA:GCK) | Meteo·Mobile Aviation Weather
aviador You're here:

KGCK Decoded Metar

GARDEN CITY in KS, USA
Report Time2019-06-18 14:28:00
UTC Time2019-06-18 14:42:56
Flight Rules vfr VFR
Wind200° at 04 kt
W.Decomp.*RWY 17: 3.7 kt HW 1.4 kt RCW
RWY 12: 1.3 kt HW 3.8 kt RCW
Visibility9999 m
Phenomena:N/A
Clouds:Few 007 Hf
Few 120 Hf
Expected CloudBase > 400 ft AGL from Temp-Dew spread
CeilingNone
Temp18°C (ISA +9)
Dew Point17°C (94% RH)
QNH1016 hPa
Density Alt4,065 ft
Elevation2,877 ft
Report Wrong Elevation
Raw Report
KGCK 181428Z 20004KT 10SM FEW007 FEW120 18/17 A2999 RMK AO2
T01830172=

Extra information for KGCK:More info

Metar Taf Metar & Taf Last 4 Metars F.Rules Stats Wind Profile Meteogram Temp Stats Airport Information Weather charts Add Link Nearby VenuesMetar ALERT Operation Metar Decoded Social comments

AIRNAV info for KGCK